sensor_id;sensor_type;location;lat;lon;timestamp;P1;durP1;ratioP1;P2;durP2;ratioP2
15039;SDS011;7617;47.366;8.558;2024-01-15T00:01:22;8.80;;;5.63;;
15039;SDS011;7617;47.366;8.558;2024-01-15T00:03:50;7.70;;;6.00;;
15039;SDS011;7617;47.366;8.558;2024-01-15T00:06:19;8.43;;;6.43;;
15039;SDS011;7617;47.366;8.558;2024-01-15T00:08:48;7.23;;;6.00;;
15039;SDS011;7617;47.366;8.558;2024-01-15T00:11:16;10.17;;;7.03;;
15039;SDS011;7617;47.366;8.558;2024-01-15T00:13:44;10.37;;;6.97;;
15039;SDS011;7617;47.366;8.558;2024-01-15T00:16:12;9.00;;;6.90;;
15039;SDS011;7617;47.366;8.558;2024-01-15T00:18:42;10.37;;;7.33;;
15039;SDS011;7617;47.366;8.558;2024-01-15T00:21:13;10.23;;;7.20;;
15039;SDS011;7617;47.366;8.558;2024-01-15T00:23:43;10.83;;;7.20;;
15039;SDS011;7617;47.366;8.558;2024-01-15T00:26:12;9.70;;;6.80;;
15039;SDS011;7617;47.366;8.558;2024-01-15T00:28:40;10.03;;;6.90;;
15039;SDS011;7617;47.366;8.558;2024-01-15T00:31:09;8.60;;;6.63;;
15039;SDS011;7617;47.366;8.558;2024-01-15T00:33:37;8.13;;;6.70;;
15039;SDS011;7617;47.366;8.558;2024-01-15T00:36:06;8.97;;;6.67;;
15039;SDS011;7617;47.366;8.558;2024-01-15T00:38:35;11.17;;;7.40;;
15039;SDS011;7617;47.366;8.558;2024-01-15T00:41:05;8.50;;;6.83;;
15039;SDS011;7617;47.366;8.558;2024-01-15T00:43:33;8.07;;;6.60;;
15039;SDS011;7617;47.366;8.558;2024-01-15T00:46:01;8.53;;;6.60;;
15039;SDS011;7617;47.366;8.558;2024-01-15T00:48:29;9.43;;;7.03;;
15039;SDS011;7617;47.366;8.558;2024-01-15T00:50:58;10.27;;;7.37;;
15039;SDS011;7617;47.366;8.558;2024-01-15T00:53:27;9.70;;;7.23;;
15039;SDS011;7617;47.366;8.558;2024-01-15T00:55:55;10.53;;;7.80;;
15039;SDS011;7617;47.366;8.558;2024-01-15T00:58:25;10.00;;;7.37;;
15039;SDS011;7617;47.366;8.558;2024-01-15T01:00:54;9.83;;;7.50;;
15039;SDS011;7617;47.366;8.558;2024-01-15T01:03:22;9.30;;;7.23;;
15039;SDS011;7617;47.366;8.558;2024-01-15T01:05:51;10.57;;;7.43;;
15039;SDS011;7617;47.366;8.558;2024-01-15T01:08:20;10.53;;;7.07;;
15039;SDS011;7617;47.366;8.558;2024-01-15T01:10:48;10.73;;;7.53;;
15039;SDS011;7617;47.366;8.558;2024-01-15T01:13:16;9.63;;;6.97;;
15039;SDS011;7617;47.366;8.558;2024-01-15T01:15:46;9.37;;;7.03;;
15039;SDS011;7617;47.366;8.558;2024-01-15T01:18:14;10.53;;;7.33;;
15039;SDS011;7617;47.366;8.558;2024-01-15T01:20:42;13.53;;;8.00;;
15039;SDS011;7617;47.366;8.558;2024-01-15T01:23:10;14.00;;;8.10;;
15039;SDS011;7617;47.366;8.558;2024-01-15T01:25:40;10.40;;;7.90;;
15039;SDS011;7617;47.366;8.558;2024-01-15T01:28:07;12.13;;;8.63;;
15039;SDS011;7617;47.366;8.558;2024-01-15T01:30:36;14.90;;;9.80;;
15039;SDS011;7617;47.366;8.558;2024-01-15T01:33:06;15.73;;;11.07;;
15039;SDS011;7617;47.366;8.558;2024-01-15T01:35:35;15.77;;;10.70;;
15039;SDS011;7617;47.366;8.558;2024-01-15T01:38:04;16.40;;;11.20;;
15039;SDS011;7617;47.366;8.558;2024-01-15T01:40:32;15.20;;;10.77;;
15039;SDS011;7617;47.366;8.558;2024-01-15T01:43:00;15.53;;;11.40;;
15039;SDS011;7617;47.366;8.558;2024-01-15T01:45:31;16.20;;;10.73;;
15039;SDS011;7617;47.366;8.558;2024-01-15T01:47:59;15.87;;;11.30;;
15039;SDS011;7617;47.366;8.558;2024-01-15T01:50:30;13.83;;;9.67;;
15039;SDS011;7617;47.366;8.558;2024-01-15T01:53:00;15.20;;;10.60;;
15039;SDS011;7617;47.366;8.558;2024-01-15T01:55:30;15.20;;;10.63;;
15039;SDS011;7617;47.366;8.558;2024-01-15T01:58:01;16.07;;;11.00;;
15039;SDS011;7617;47.366;8.558;2024-01-15T02:00:31;14.30;;;10.40;;
15039;SDS011;7617;47.366;8.558;2024-01-15T02:03:01;15.27;;;10.67;;
15039;SDS011;7617;47.366;8.558;2024-01-15T02:05:32;16.20;;;10.47;;
15039;SDS011;7617;47.366;8.558;2024-01-15T02:08:02;16.00;;;10.57;;
15039;SDS011;7617;47.366;8.558;2024-01-15T02:10:31;16.87;;;11.03;;
15039;SDS011;7617;47.366;8.558;2024-01-15T02:13:00;16.30;;;10.97;;
15039;SDS011;7617;47.366;8.558;2024-01-15T02:15:28;16.87;;;11.70;;
15039;SDS011;7617;47.366;8.558;2024-01-15T02:17:58;15.83;;;10.47;;
15039;SDS011;7617;47.366;8.558;2024-01-15T02:20:28;19.87;;;11.97;;
15039;SDS011;7617;47.366;8.558;2024-01-15T02:23:03;17.93;;;11.37;;
15039;SDS011;7617;47.366;8.558;2024-01-15T02:25:35;15.63;;;10.17;;
15039;SDS011;7617;47.366;8.558;2024-01-15T02:28:05;17.77;;;11.60;;
15039;SDS011;7617;47.366;8.558;2024-01-15T02:30:36;18.30;;;11.50;;
15039;SDS011;7617;47.366;8.558;2024-01-15T02:33:07;16.73;;;10.70;;
15039;SDS011;7617;47.366;8.558;2024-01-15T02:35:35;15.80;;;10.70;;
15039;SDS011;7617;47.366;8.558;2024-01-15T02:38:06;17.70;;;12.00;;
15039;SDS011;7617;47.366;8.558;2024-01-15T02:40:35;18.43;;;11.50;;
15039;SDS011;7617;47.366;8.558;2024-01-15T02:43:03;19.77;;;12.43;;
15039;SDS011;7617;47.366;8.558;2024-01-15T02:45:31;18.37;;;10.90;;
15039;SDS011;7617;47.366;8.558;2024-01-15T02:48:00;19.10;;;11.90;;
15039;SDS011;7617;47.366;8.558;2024-01-15T02:50:29;19.20;;;11.23;;
15039;SDS011;7617;47.366;8.558;2024-01-15T02:52:56;20.93;;;12.60;;
15039;SDS011;7617;47.366;8.558;2024-01-15T02:55:26;20.67;;;12.87;;
15039;SDS011;7617;47.366;8.558;2024-01-15T02:57:56;23.53;;;13.63;;
15039;SDS011;7617;47.366;8.558;2024-01-15T03:00:24;23.80;;;13.90;;
15039;SDS011;7617;47.366;8.558;2024-01-15T03:02:54;22.13;;;13.23;;
15039;SDS011;7617;47.366;8.558;2024-01-15T03:05:23;23.17;;;14.07;;
15039;SDS011;7617;47.366;8.558;2024-01-15T03:07:52;23.53;;;13.63;;
15039;SDS011;7617;47.366;8.558;2024-01-15T03:10:20;25.33;;;13.97;;
15039;SDS011;7617;47.366;8.558;2024-01-15T03:12:50;25.07;;;14.57;;
15039;SDS011;7617;47.366;8.558;2024-01-15T03:15:18;24.90;;;14.47;;
15039;SDS011;7617;47.366;8.558;2024-01-15T03:17:47;25.40;;;14.00;;
15039;SDS011;7617;47.366;8.558;2024-01-15T03:20:15;24.90;;;14.50;;
15039;SDS011;7617;47.366;8.558;2024-01-15T03:22:43;24.07;;;14.47;;
15039;SDS011;7617;47.366;8.558;2024-01-15T03:25:11;23.50;;;14.90;;
15039;SDS011;7617;47.366;8.558;2024-01-15T03:27:39;23.23;;;13.40;;
15039;SDS011;7617;47.366;8.558;2024-01-15T03:30:09;22.80;;;13.27;;
15039;SDS011;7617;47.366;8.558;2024-01-15T03:32:39;25.50;;;14.30;;
15039;SDS011;7617;47.366;8.558;2024-01-15T03:35:07;24.77;;;14.83;;
15039;SDS011;7617;47.366;8.558;2024-01-15T03:37:36;23.63;;;13.73;;
15039;SDS011;7617;47.366;8.558;2024-01-15T03:40:05;22.10;;;13.37;;
15039;SDS011;7617;47.366;8.558;2024-01-15T03:42:34;22.60;;;13.17;;
15039;SDS011;7617;47.366;8.558;2024-01-15T03:45:03;18.13;;;12.23;;
15039;SDS011;7617;47.366;8.558;2024-01-15T03:47:33;21.53;;;13.07;;
15039;SDS011;7617;47.366;8.558;2024-01-15T03:50:02;22.03;;;12.40;;
15039;SDS011;7617;47.366;8.558;2024-01-15T03:52:30;20.33;;;11.80;;
15039;SDS011;7617;47.366;8.558;2024-01-15T03:54:59;19.97;;;12.10;;
15039;SDS011;7617;47.366;8.558;2024-01-15T03:57:28;22.03;;;12.73;;
15039;SDS011;7617;47.366;8.558;2024-01-15T03:59:55;20.57;;;12.50;;
15039;SDS011;7617;47.366;8.558;2024-01-15T04:02:24;19.67;;;11.50;;
15039;SDS011;7617;47.366;8.558;2024-01-15T04:04:53;19.17;;;11.20;;
15039;SDS011;7617;47.366;8.558;2024-01-15T04:07:22;18.17;;;11.33;;
15039;SDS011;7617;47.366;8.558;2024-01-15T04:09:50;18.67;;;11.63;;
15039;SDS011;7617;47.366;8.558;2024-01-15T04:12:18;17.90;;;11.23;;
15039;SDS011;7617;47.366;8.558;2024-01-15T04:14:46;18.03;;;11.20;;
15039;SDS011;7617;47.366;8.558;2024-01-15T04:17:15;20.87;;;12.20;;
15039;SDS011;7617;47.366;8.558;2024-01-15T04:19:44;20.83;;;11.53;;
15039;SDS011;7617;47.366;8.558;2024-01-15T04:22:14;19.47;;;11.30;;
15039;SDS011;7617;47.366;8.558;2024-01-15T04:24:42;17.80;;;10.70;;
15039;SDS011;7617;47.366;8.558;2024-01-15T04:27:10;17.40;;;10.27;;
15039;SDS011;7617;47.366;8.558;2024-01-15T04:29:38;17.50;;;10.50;;
15039;SDS011;7617;47.366;8.558;2024-01-15T04:32:07;18.50;;;10.60;;
15039;SDS011;7617;47.366;8.558;2024-01-15T04:34:35;17.93;;;10.37;;
15039;SDS011;7617;47.366;8.558;2024-01-15T04:37:04;19.07;;;10.47;;
15039;SDS011;7617;47.366;8.558;2024-01-15T04:39:34;19.50;;;10.07;;
15039;SDS011;7617;47.366;8.558;2024-01-15T04:42:03;19.30;;;10.67;;
15039;SDS011;7617;47.366;8.558;2024-01-15T04:44:31;16.70;;;9.83;;
15039;SDS011;7617;47.366;8.558;2024-01-15T04:47:00;16.03;;;9.73;;
15039;SDS011;7617;47.366;8.558;2024-01-15T04:49:28;16.80;;;10.27;;
15039;SDS011;7617;47.366;8.558;2024-01-15T04:51:57;19.23;;;10.03;;
15039;SDS011;7617;47.366;8.558;2024-01-15T04:54:25;16.37;;;9.63;;
15039;SDS011;7617;47.366;8.558;2024-01-15T04:56:55;16.73;;;9.93;;
15039;SDS011;7617;47.366;8.558;2024-01-15T04:59:23;14.67;;;9.30;;
15039;SDS011;7617;47.366;8.558;2024-01-15T05:01:51;16.77;;;8.93;;
15039;SDS011;7617;47.366;8.558;2024-01-15T05:04:19;16.43;;;9.47;;
15039;SDS011;7617;47.366;8.558;2024-01-15T05:06:47;13.73;;;9.03;;
15039;SDS011;7617;47.366;8.558;2024-01-15T05:09:17;17.90;;;10.27;;
15039;SDS011;7617;47.366;8.558;2024-01-15T05:11:45;15.80;;;9.27;;
15039;SDS011;7617;47.366;8.558;2024-01-15T05:14:14;15.80;;;8.97;;
15039;SDS011;7617;47.366;8.558;2024-01-15T05:16:46;16.07;;;9.13;;
15039;SDS011;7617;47.366;8.558;2024-01-15T05:19:14;13.77;;;8.57;;
15039;SDS011;7617;47.366;8.558;2024-01-15T05:21:43;13.23;;;8.27;;
15039;SDS011;7617;47.366;8.558;2024-01-15T05:24:12;14.77;;;8.70;;
15039;SDS011;7617;47.366;8.558;2024-01-15T05:26:40;15.10;;;8.53;;
15039;SDS011;7617;47.366;8.558;2024-01-15T05:29:09;13.47;;;8.63;;
15039;SDS011;7617;47.366;8.558;2024-01-15T05:31:38;13.33;;;8.67;;
15039;SDS011;7617;47.366;8.558;2024-01-15T05:34:07;14.60;;;8.67;;
15039;SDS011;7617;47.366;8.558;2024-01-15T05:36:35;12.43;;;8.07;;
15039;SDS011;7617;47.366;8.558;2024-01-15T05:39:04;14.03;;;7.60;;
15039;SDS011;7617;47.366;8.558;2024-01-15T05:41:32;12.17;;;7.43;;
15039;SDS011;7617;47.366;8.558;2024-01-15T05:44:00;13.53;;;8.37;;
15039;SDS011;7617;47.366;8.558;2024-01-15T05:46:28;12.90;;;8.10;;
15039;SDS011;7617;47.366;8.558;2024-01-15T05:48:58;11.13;;;7.67;;
15039;SDS011;7617;47.366;8.558;2024-01-15T05:51:27;12.60;;;8.10;;
15039;SDS011;7617;47.366;8.558;2024-01-15T05:53:55;11.67;;;7.83;;
15039;SDS011;7617;47.366;8.558;2024-01-15T05:56:23;13.90;;;8.60;;
15039;SDS011;7617;47.366;8.558;2024-01-15T05:58:52;11.30;;;7.37;;
15039;SDS011;7617;47.366;8.558;2024-01-15T06:01:21;13.50;;;8.27;;
15039;SDS011;7617;47.366;8.558;2024-01-15T06:03:49;21.47;;;11.50;;
15039;SDS011;7617;47.366;8.558;2024-01-15T06:06:18;12.27;;;8.03;;
15039;SDS011;7617;47.366;8.558;2024-01-15T06:08:47;12.10;;;8.07;;
15039;SDS011;7617;47.366;8.558;2024-01-15T06:11:15;12.50;;;8.03;;
15039;SDS011;7617;47.366;8.558;2024-01-15T06:13:44;12.47;;;8.00;;
15039;SDS011;7617;47.366;8.558;2024-01-15T06:16:13;12.87;;;7.80;;
15039;SDS011;7617;47.366;8.558;2024-01-15T06:18:42;11.47;;;8.37;;
15039;SDS011;7617;47.366;8.558;2024-01-15T06:21:11;12.83;;;8.60;;
15039;SDS011;7617;47.366;8.558;2024-01-15T06:23:42;11.67;;;7.60;;
15039;SDS011;7617;47.366;8.558;2024-01-15T06:26:11;13.90;;;8.20;;
15039;SDS011;7617;47.366;8.558;2024-01-15T06:28:39;13.80;;;8.47;;
15039;SDS011;7617;47.366;8.558;2024-01-15T06:31:07;12.93;;;7.87;;
15039;SDS011;7617;47.366;8.558;2024-01-15T06:33:37;13.33;;;8.13;;
15039;SDS011;7617;47.366;8.558;2024-01-15T06:36:06;11.63;;;7.70;;
15039;SDS011;7617;47.366;8.558;2024-01-15T06:38:35;10.67;;;7.50;;
15039;SDS011;7617;47.366;8.558;2024-01-15T06:41:04;10.33;;;7.50;;
15039;SDS011;7617;47.366;8.558;2024-01-15T06:43:32;11.07;;;7.63;;
15039;SDS011;7617;47.366;8.558;2024-01-15T06:46:01;11.00;;;7.30;;
15039;SDS011;7617;47.366;8.558;2024-01-15T06:48:34;10.47;;;6.90;;
15039;SDS011;7617;47.366;8.558;2024-01-15T06:51:02;10.63;;;7.10;;
15039;SDS011;7617;47.366;8.558;2024-01-15T06:53:31;11.23;;;7.27;;
15039;SDS011;7617;47.366;8.558;2024-01-15T06:55:59;10.43;;;6.80;;
15039;SDS011;7617;47.366;8.558;2024-01-15T06:58:29;9.77;;;7.03;;
15039;SDS011;7617;47.366;8.558;2024-01-15T07:00:59;10.67;;;6.70;;
15039;SDS011;7617;47.366;8.558;2024-01-15T07:03:27;8.63;;;6.53;;
15039;SDS011;7617;47.366;8.558;2024-01-15T07:05:56;8.77;;;5.87;;
15039;SDS011;7617;47.366;8.558;2024-01-15T07:08:24;8.70;;;6.60;;
15039;SDS011;7617;47.366;8.558;2024-01-15T07:10:53;8.80;;;6.20;;
15039;SDS011;7617;47.366;8.558;2024-01-15T07:13:21;9.90;;;6.10;;
15039;SDS011;7617;47.366;8.558;2024-01-15T07:15:51;9.23;;;6.53;;
15039;SDS011;7617;47.366;8.558;2024-01-15T07:18:21;8.03;;;6.13;;
15039;SDS011;7617;47.366;8.558;2024-01-15T07:20:50;6.93;;;5.43;;
15039;SDS011;7617;47.366;8.558;2024-01-15T07:23:19;8.03;;;5.83;;
15039;SDS011;7617;47.366;8.558;2024-01-15T07:25:47;7.43;;;5.70;;
15039;SDS011;7617;47.366;8.558;2024-01-15T07:28:15;9.73;;;6.63;;
15039;SDS011;7617;47.366;8.558;2024-01-15T07:30:43;8.47;;;6.00;;
15039;SDS011;7617;47.366;8.558;2024-01-15T07:33:14;8.43;;;6.20;;
15039;SDS011;7617;47.366;8.558;2024-01-15T07:35:43;7.47;;;5.77;;
15039;SDS011;7617;47.366;8.558;2024-01-15T07:38:11;8.23;;;5.97;;
15039;SDS011;7617;47.366;8.558;2024-01-15T07:40:39;9.03;;;5.70;;
15039;SDS011;7617;47.366;8.558;2024-01-15T07:43:12;6.77;;;5.27;;
15039;SDS011;7617;47.366;8.558;2024-01-15T07:45:40;8.40;;;5.97;;
15039;SDS011;7617;47.366;8.558;2024-01-15T07:48:11;7.03;;;5.33;;
15039;SDS011;7617;47.366;8.558;2024-01-15T07:50:41;10.47;;;6.07;;
15039;SDS011;7617;47.366;8.558;2024-01-15T07:53:09;8.57;;;5.77;;
15039;SDS011;7617;47.366;8.558;2024-01-15T07:55:37;7.33;;;5.83;;
15039;SDS011;7617;47.366;8.558;2024-01-15T07:58:06;7.80;;;5.63;;
15039;SDS011;7617;47.366;8.558;2024-01-15T08:00:42;9.23;;;6.40;;
15039;SDS011;7617;47.366;8.558;2024-01-15T08:03:11;8.90;;;6.10;;
15039;SDS011;7617;47.366;8.558;2024-01-15T08:05:41;8.07;;;6.20;;
15039;SDS011;7617;47.366;8.558;2024-01-15T08:08:10;9.03;;;5.47;;
15039;SDS011;7617;47.366;8.558;2024-01-15T08:10:38;10.60;;;5.70;;
15039;SDS011;7617;47.366;8.558;2024-01-15T08:13:06;7.80;;;5.43;;
15039;SDS011;7617;47.366;8.558;2024-01-15T08:15:36;8.53;;;6.23;;
15039;SDS011;7617;47.366;8.558;2024-01-15T08:18:04;9.43;;;5.97;;
15039;SDS011;7617;47.366;8.558;2024-01-15T08:20:33;7.03;;;5.00;;
15039;SDS011;7617;47.366;8.558;2024-01-15T08:23:02;7.90;;;5.57;;
15039;SDS011;7617;47.366;8.558;2024-01-15T08:25:31;8.80;;;5.97;;
15039;SDS011;7617;47.366;8.558;2024-01-15T08:27:59;8.27;;;5.80;;
15039;SDS011;7617;47.366;8.558;2024-01-15T08:30:27;11.30;;;6.13;;
15039;SDS011;7617;47.366;8.558;2024-01-15T08:32:56;7.63;;;5.93;;
15039;SDS011;7617;47.366;8.558;2024-01-15T08:35:36;8.03;;;5.93;;
15039;SDS011;7617;47.366;8.558;2024-01-15T08:38:06;7.83;;;5.73;;
15039;SDS011;7617;47.366;8.558;2024-01-15T08:40:34;8.10;;;6.00;;
15039;SDS011;7617;47.366;8.558;2024-01-15T08:43:02;7.37;;;5.87;;
15039;SDS011;7617;47.366;8.558;2024-01-15T08:45:31;8.00;;;5.43;;
15039;SDS011;7617;47.366;8.558;2024-01-15T08:48:00;8.60;;;5.90;;
15039;SDS011;7617;47.366;8.558;2024-01-15T08:50:30;7.87;;;5.50;;
15039;SDS011;7617;47.366;8.558;2024-01-15T08:53:00;7.23;;;5.27;;
15039;SDS011;7617;47.366;8.558;2024-01-15T08:55:29;7.27;;;5.40;;
15039;SDS011;7617;47.366;8.558;2024-01-15T08:57:58;7.77;;;5.53;;
15039;SDS011;7617;47.366;8.558;2024-01-15T09:00:26;8.73;;;5.83;;
15039;SDS011;7617;47.366;8.558;2024-01-15T09:02:54;8.60;;;5.70;;
15039;SDS011;7617;47.366;8.558;2024-01-15T09:05:22;7.57;;;5.07;;
15039;SDS011;7617;47.366;8.558;2024-01-15T09:07:51;7.17;;;5.10;;
15039;SDS011;7617;47.366;8.558;2024-01-15T09:10:19;7.73;;;5.23;;
15039;SDS011;7617;47.366;8.558;2024-01-15T09:12:48;7.07;;;5.20;;
15039;SDS011;7617;47.366;8.558;2024-01-15T09:15:17;5.43;;;4.57;;
15039;SDS011;7617;47.366;8.558;2024-01-15T09:17:46;7.03;;;4.63;;
15039;SDS011;7617;47.366;8.558;2024-01-15T09:20:14;6.47;;;4.60;;
15039;SDS011;7617;47.366;8.558;2024-01-15T09:22:42;7.77;;;4.50;;
15039;SDS011;7617;47.366;8.558;2024-01-15T09:25:11;13.67;;;4.90;;
15039;SDS011;7617;47.366;8.558;2024-01-15T09:27:40;10.97;;;4.83;;
15039;SDS011;7617;47.366;8.558;2024-01-15T09:30:10;9.53;;;4.83;;
15039;SDS011;7617;47.366;8.558;2024-01-15T09:32:39;8.10;;;4.77;;
15039;SDS011;7617;47.366;8.558;2024-01-15T09:35:07;7.73;;;4.57;;
15039;SDS011;7617;47.366;8.558;2024-01-15T09:37:36;8.87;;;4.77;;
15039;SDS011;7617;47.366;8.558;2024-01-15T09:40:13;7.23;;;4.50;;
15039;SDS011;7617;47.366;8.558;2024-01-15T09:42:43;15.17;;;5.30;;
15039;SDS011;7617;47.366;8.558;2024-01-15T09:45:13;6.37;;;4.93;;
15039;SDS011;7617;47.366;8.558;2024-01-15T09:47:42;18.40;;;6.00;;
15039;SDS011;7617;47.366;8.558;2024-01-15T09:50:12;5.50;;;4.43;;
15039;SDS011;7617;47.366;8.558;2024-01-15T09:52:41;8.40;;;4.70;;
15039;SDS011;7617;47.366;8.558;2024-01-15T09:55:10;10.10;;;5.00;;
15039;SDS011;7617;47.366;8.558;2024-01-15T09:57:43;11.70;;;5.20;;
15039;SDS011;7617;47.366;8.558;2024-01-15T10:00:14;8.87;;;5.03;;
15039;SDS011;7617;47.366;8.558;2024-01-15T10:02:44;7.20;;;4.67;;
15039;SDS011;7617;47.366;8.558;2024-01-15T10:05:13;7.47;;;4.70;;
15039;SDS011;7617;47.366;8.558;2024-01-15T10:07:41;10.20;;;5.30;;
15039;SDS011;7617;47.366;8.558;2024-01-15T10:10:10;12.67;;;5.77;;
15039;SDS011;7617;47.366;8.558;2024-01-15T10:12:39;11.00;;;5.37;;
15039;SDS011;7617;47.366;8.558;2024-01-15T10:15:09;13.70;;;7.03;;
15039;SDS011;7617;47.366;8.558;2024-01-15T10:17:39;8.03;;;4.83;;
15039;SDS011;7617;47.366;8.558;2024-01-15T10:20:09;9.23;;;7.60;;
15039;SDS011;7617;47.366;8.558;2024-01-15T10:22:39;11.23;;;5.93;;
15039;SDS011;7617;47.366;8.558;2024-01-15T10:25:10;9.40;;;4.87;;
15039;SDS011;7617;47.366;8.558;2024-01-15T10:27:38;5.33;;;4.10;;
15039;SDS011;7617;47.366;8.558;2024-01-15T10:30:07;7.50;;;4.80;;
15039;SDS011;7617;47.366;8.558;2024-01-15T10:32:36;9.67;;;5.13;;
15039;SDS011;7617;47.366;8.558;2024-01-15T10:35:07;8.90;;;6.60;;
15039;SDS011;7617;47.366;8.558;2024-01-15T10:37:35;6.57;;;4.17;;
15039;SDS011;7617;47.366;8.558;2024-01-15T10:40:04;9.87;;;4.57;;
15039;SDS011;7617;47.366;8.558;2024-01-15T10:42:33;10.27;;;4.33;;
15039;SDS011;7617;47.366;8.558;2024-01-15T10:45:01;11.27;;;4.60;;
15039;SDS011;7617;47.366;8.558;2024-01-15T10:47:29;4.43;;;4.00;;
15039;SDS011;7617;47.366;8.558;2024-01-15T10:49:57;9.23;;;4.80;;
15039;SDS011;7617;47.366;8.558;2024-01-15T10:52:28;7.33;;;4.53;;
15039;SDS011;7617;47.366;8.558;2024-01-15T10:54:56;7.70;;;4.23;;
15039;SDS011;7617;47.366;8.558;2024-01-15T10:57:28;5.30;;;4.00;;
15039;SDS011;7617;47.366;8.558;2024-01-15T10:59:58;12.63;;;4.47;;
15039;SDS011;7617;47.366;8.558;2024-01-15T11:02:26;8.37;;;4.03;;
15039;SDS011;7617;47.366;8.558;2024-01-15T11:04:54;6.70;;;4.70;;
15039;SDS011;7617;47.366;8.558;2024-01-15T11:07:23;4.10;;;3.70;;
15039;SDS011;7617;47.366;8.558;2024-01-15T11:09:56;12.30;;;4.97;;
15039;SDS011;7617;47.366;8.558;2024-01-15T11:12:25;10.07;;;4.40;;
15039;SDS011;7617;47.366;8.558;2024-01-15T11:15:00;12.90;;;5.33;;
15039;SDS011;7617;47.366;8.558;2024-01-15T11:20:27;6.87;;;3.80;;
15039;SDS011;7617;47.366;8.558;2024-01-15T11:22:55;5.87;;;3.93;;
15039;SDS011;7617;47.366;8.558;2024-01-15T11:25:34;5.00;;;4.00;;
15039;SDS011;7617;47.366;8.558;2024-01-15T11:28:04;8.27;;;3.80;;
15039;SDS011;7617;47.366;8.558;2024-01-15T11:30:32;13.20;;;5.40;;
15039;SDS011;7617;47.366;8.558;2024-01-15T11:33:03;5.23;;;4.47;;
15039;SDS011;7617;47.366;8.558;2024-01-15T11:38:26;5.33;;;3.90;;
15039;SDS011;7617;47.366;8.558;2024-01-15T11:40:57;11.40;;;4.53;;
15039;SDS011;7617;47.366;8.558;2024-01-15T11:43:28;9.73;;;4.50;;
15039;SDS011;7617;47.366;8.558;2024-01-15T11:45:59;8.50;;;3.90;;
15039;SDS011;7617;47.366;8.558;2024-01-15T11:48:32;12.63;;;4.30;;
15039;SDS011;7617;47.366;8.558;2024-01-15T11:51:11;5.50;;;3.80;;
15039;SDS011;7617;47.366;8.558;2024-01-15T11:53:43;8.27;;;5.50;;
15039;SDS011;7617;47.366;8.558;2024-01-15T11:56:16;5.83;;;4.07;;
15039;SDS011;7617;47.366;8.558;2024-01-15T11:58:45;5.37;;;3.90;;
15039;SDS011;7617;47.366;8.558;2024-01-15T12:01:13;8.07;;;4.37;;
15039;SDS011;7617;47.366;8.558;2024-01-15T12:03:41;8.43;;;4.40;;
15039;SDS011;7617;47.366;8.558;2024-01-15T12:06:11;7.83;;;4.50;;
15039;SDS011;7617;47.366;8.558;2024-01-15T12:08:39;8.70;;;4.60;;
15039;SDS011;7617;47.366;8.558;2024-01-15T12:11:10;4.20;;;3.63;;
15039;SDS011;7617;47.366;8.558;2024-01-15T12:13:42;38.33;;;7.43;;
15039;SDS011;7617;47.366;8.558;2024-01-15T12:16:10;5.37;;;4.13;;
15039;SDS011;7617;47.366;8.558;2024-01-15T12:18:39;6.73;;;4.47;;
15039;SDS011;7617;47.366;8.558;2024-01-15T12:21:10;7.17;;;4.70;;
15039;SDS011;7617;47.366;8.558;2024-01-15T12:23:38;5.67;;;4.30;;
15039;SDS011;7617;47.366;8.558;2024-01-15T12:26:07;5.17;;;4.00;;
15039;SDS011;7617;47.366;8.558;2024-01-15T12:28:36;6.97;;;4.37;;
15039;SDS011;7617;47.366;8.558;2024-01-15T12:31:07;16.13;;;6.07;;
15039;SDS011;7617;47.366;8.558;2024-01-15T12:33:36;8.03;;;4.60;;
15039;SDS011;7617;47.366;8.558;2024-01-15T12:36:04;7.03;;;4.63;;
15039;SDS011;7617;47.366;8.558;2024-01-15T12:38:33;6.67;;;4.83;;
15039;SDS011;7617;47.366;8.558;2024-01-15T12:41:01;5.73;;;4.40;;
15039;SDS011;7617;47.366;8.558;2024-01-15T12:43:29;6.80;;;4.43;;
15039;SDS011;7617;47.366;8.558;2024-01-15T12:45:58;8.50;;;5.33;;
15039;SDS011;7617;47.366;8.558;2024-01-15T12:48:28;7.23;;;5.37;;
15039;SDS011;7617;47.366;8.558;2024-01-15T12:50:57;8.87;;;4.50;;
15039;SDS011;7617;47.366;8.558;2024-01-15T12:53:25;5.70;;;4.60;;
15039;SDS011;7617;47.366;8.558;2024-01-15T12:55:53;6.93;;;4.77;;
15039;SDS011;7617;47.366;8.558;2024-01-15T12:58:21;4.93;;;4.40;;
15039;SDS011;7617;47.366;8.558;2024-01-15T13:00:50;7.00;;;5.30;;
15039;SDS011;7617;47.366;8.558;2024-01-15T13:03:18;7.00;;;5.07;;
15039;SDS011;7617;47.366;8.558;2024-01-15T13:05:48;6.47;;;4.73;;
15039;SDS011;7617;47.366;8.558;2024-01-15T13:08:17;5.33;;;4.50;;
15039;SDS011;7617;47.366;8.558;2024-01-15T13:10:45;7.43;;;5.20;;
15039;SDS011;7617;47.366;8.558;2024-01-15T13:13:14;6.57;;;4.90;;
15039;SDS011;7617;47.366;8.558;2024-01-15T13:15:42;5.83;;;5.10;;
15039;SDS011;7617;47.366;8.558;2024-01-15T13:18:10;5.83;;;5.20;;
15039;SDS011;7617;47.366;8.558;2024-01-15T13:20:39;6.97;;;5.40;;
15039;SDS011;7617;47.366;8.558;2024-01-15T13:23:08;7.23;;;5.23;;
15039;SDS011;7617;47.366;8.558;2024-01-15T13:25:37;5.90;;;4.77;;
15039;SDS011;7617;47.366;8.558;2024-01-15T13:28:06;13.17;;;5.47;;
15039;SDS011;7617;47.366;8.558;2024-01-15T13:30:34;8.30;;;5.60;;
15039;SDS011;7617;47.366;8.558;2024-01-15T13:33:03;6.60;;;5.40;;
15039;SDS011;7617;47.366;8.558;2024-01-15T13:35:32;6.13;;;5.27;;
15039;SDS011;7617;47.366;8.558;2024-01-15T13:38:00;7.67;;;5.20;;
15039;SDS011;7617;47.366;8.558;2024-01-15T13:40:29;9.40;;;5.80;;
15039;SDS011;7617;47.366;8.558;2024-01-15T13:42:57;6.97;;;5.43;;
15039;SDS011;7617;47.366;8.558;2024-01-15T13:45:25;7.60;;;5.27;;
15039;SDS011;7617;47.366;8.558;2024-01-15T13:47:53;7.07;;;5.77;;
15039;SDS011;7617;47.366;8.558;2024-01-15T13:50:22;6.67;;;5.60;;
15039;SDS011;7617;47.366;8.558;2024-01-15T13:52:51;9.60;;;5.83;;
15039;SDS011;7617;47.366;8.558;2024-01-15T13:55:19;6.77;;;5.63;;
15039;SDS011;7617;47.366;8.558;2024-01-15T13:57:49;7.80;;;6.00;;
15039;SDS011;7617;47.366;8.558;2024-01-15T14:00:17;8.07;;;5.57;;
15039;SDS011;7617;47.366;8.558;2024-01-15T14:02:46;7.93;;;6.20;;
15039;SDS011;7617;47.366;8.558;2024-01-15T14:05:14;7.33;;;5.93;;
15039;SDS011;7617;47.366;8.558;2024-01-15T14:07:43;9.33;;;6.10;;
15039;SDS011;7617;47.366;8.558;2024-01-15T14:10:11;8.87;;;6.10;;
15039;SDS011;7617;47.366;8.558;2024-01-15T14:12:39;7.53;;;6.53;;
15039;SDS011;7617;47.366;8.558;2024-01-15T14:15:08;8.10;;;6.37;;
15039;SDS011;7617;47.366;8.558;2024-01-15T14:17:37;11.57;;;6.90;;
15039;SDS011;7617;47.366;8.558;2024-01-15T14:20:06;8.53;;;6.60;;
15039;SDS011;7617;47.366;8.558;2024-01-15T14:22:36;10.37;;;6.80;;
15039;SDS011;7617;47.366;8.558;2024-01-15T14:25:04;8.87;;;6.57;;
15039;SDS011;7617;47.366;8.558;2024-01-15T14:27:32;11.17;;;6.50;;
15039;SDS011;7617;47.366;8.558;2024-01-15T14:30:00;15.40;;;6.97;;
15039;SDS011;7617;47.366;8.558;2024-01-15T14:32:31;9.40;;;6.57;;
15039;SDS011;7617;47.366;8.558;2024-01-15T14:34:59;10.53;;;7.07;;
15039;SDS011;7617;47.366;8.558;2024-01-15T14:37:27;12.07;;;6.90;;
15039;SDS011;7617;47.366;8.558;2024-01-15T14:39:56;11.27;;;6.77;;
15039;SDS011;7617;47.366;8.558;2024-01-15T14:42:24;9.97;;;7.20;;
15039;SDS011;7617;47.366;8.558;2024-01-15T14:44:52;9.67;;;7.40;;
15039;SDS011;7617;47.366;8.558;2024-01-15T14:47:20;8.73;;;6.93;;
15039;SDS011;7617;47.366;8.558;2024-01-15T14:49:52;11.57;;;6.80;;
15039;SDS011;7617;47.366;8.558;2024-01-15T14:52:20;14.47;;;7.63;;
15039;SDS011;7617;47.366;8.558;2024-01-15T14:54:48;12.53;;;8.07;;
15039;SDS011;7617;47.366;8.558;2024-01-15T14:57:16;12.90;;;8.73;;
